Главная страница
METAR-TAF:

METAR-TAF

Аэропорты :

Гостомель, Украина

Антонов

широта: 50-36-01N, долгота: 030-11-37E, высота над уровнем моря: 157 м

Текущие метеонаблюдения

Эта сводка был подготовлена 40 минут назад, в 16:00 UTC
Ветер 6 Узел от северо-северо-восточный, изменяющийся между северный и восточно-северо-восточный
Температура 25°C
Влажность 36%
Давление 1015 hPa
Видимость 10 км и более

METAR: UKKM 231600Z AUTO 03003MPS 350V070 9999 NCD 25/09 Q1015

Время: 19:40 (16:40 UTC)


TAF: отсутствует

Метеонаблюдения и прогнозы для более 4000 аэропортов (сводки METAR и TAF).

Имеющиеся станции представлены на карте желтыми и красными точками.

Чтобы увидеть название станции, наведите на нее мышь.

Затем щелкните, чтобы увидеть метеонаблюдения и метеопрогнозы.

Управление картой: чтобы увеличить масштаб, щелкните зеленые кнопки с черным крестиком; чтобы уменьшить масштаб, щелкните зеленую кнопку с тире; для просмотра соседних карт щелкайте зеленые стрелки.


METAR-TAF: